Amstetten, Austria

11:30 AM CET on January 29, 2015 (GMT +0100)
DBSolutions, Winklarn, Austria | Change Station
CLOSE
Current Station
Personal Weather Station
Location: Winklarn, NIEDERöSTERREICH
Elevation: 1050 ft
Nearby Weather Stations
Active Advisory: Snow/Ice english:

Elev 1050 ft 48.09 °N, 14.85 °E | Updated 5 seconds ago

Mostly Cloudy
Mostly Cloudy
35.2 °F
Feels Like 35 °F
N
1.1
Wind Variable Wind from NNE
Gusts 2.5 mph

Today
High -- | Low -- °F
--% Chance of Precip.
Yesterday
High -- | Low -- °F
Precip. -- in
7:32 AM 4:54 PM
Waxing Gibbous, 73% visible
Pressure 29.53 in
Visibility 6.2 miles
Clouds Few 1400 ft
Scattered Clouds 7000 ft
Mostly Cloudy 9000 ft
Windchill 35 °F
Dew Point 26 °F
Humidity 70%
Rainfall 0.11 in
Snow Depth Not available.
UV 1.0 out of 12
Pollen Not available.
Air Quality Not available.
Flu Activity Not available.
METAR LOWL 291020Z 25006KT 9999 FEW014 SCT070 BKN090 02/M02 Q1000 R08/29//95 NOSIG

More Conditions Fewer Conditions

Pressure 29.53 in
Visibility 6.2 miles
Clouds Few 1400 ft
Scattered Clouds 7000 ft
Mostly Cloudy 9000 ft
Windchill 35 °F
Dew Point 26 °F
Humidity 70%
Rainfall 0.11 in
Snow Depth Not available.
UV 1.0 out of 12
Pollen Not available.
Air Quality Not available.
Flu Activity Not available.
METAR LOWL 291020Z 25006KT 9999 FEW014 SCT070 BKN090 02/M02 Q1000 R08/29//95 NOSIG

More Conditions Fewer Conditions

10-Day Weather Forecast

Almanac

Astronomy

Jan. 29, 2015 Rise Set
Actual Time
Civil Twilight
Nautical Twilight
Astronomical Twilight
Moon
Length of Visible Light
Length of Day
Tomorrow will be .
, % of the Moon is Illuminated

Today's Extremes

Country Highs Country Lows

Community

WunderPhotos

Upload Photos

1,791,389 photos uploaded!

WunderBlogs® & News

Nearby

Air Quality

  Air Quality AQ Index Pollutant
Not available.

Snow Depth

Station Depth Elevation

Earthquake Activity

City Distance Mag. Time & Date
Minimum magnitude displayed is 2.5.

Coastal Water Temperatures

Place Temperature

Nearby Weather Stations